Currently 59°F in Moreno Valley, California, USA
59°F
61°F / 58°F
calm
0.00"
Monday, May 29, 2017 2:45 AM PDT

Moreno Valley, California Weather Summary
Last 36 Hours

Temperature Winds Hourly Humidity Dewpoint
Time Report Norm Report Norm Max Gusts Precip. Rpt. Norm Rpt. Norm Pressure
1Mon 02:45 AM  59.2°F  55°F  calm  1 mph  4 mph  0.00"  89%  89%  56°F  52°F  28.04"
3Mon 02:14 AM  58.2°F  56°F  calm  1 mph  none  ----  90%  88%  55°F  52°F  28.05"
Mon 02:00 AM  58.5°F  56°F  calm  1 mph  5 mph  0.00"  89%  87%  55°F  52°F  28.06"
Mon 01:00 AM  61.0°F  57°F  3 mph E  1 mph  5 mph  0.00"  85%  85%  56°F  52°F  28.07"
2Mon 12:46 AM  61.5°F  57°F  1 mph E  1 mph  3 mph  ----  85%  84%  57°F  52°F  28.08"
Mon 12:00 AM  61.3°F  58°F  calm  1 mph  none  0.00"  83%  82%  56°F  53°F  28.08"
Sun 11:00 PM  63.4°F  60°F  calm  1 mph  none  0.00"  79%  78%  57°F  53°F  28.09"
Sun 10:00 PM  67.1°F  62°F  calm  2 mph  7 mph  0.00"  72%  73%  57°F  53°F  28.09"
Sun 09:00 PM  71.0°F  64°F  calm  3 mph  7 mph  0.00"  62%  66%  57°F  52°F  28.09"
Sun 08:00 PM  73.5°F  67°F  4 mph NW  4 mph  10 mph  0.00"  57%  59%  57°F  52°F  28.07"
Sun 07:00 PM  78.5°F  71°F  6 mph NW  6 mph  13 mph  0.00"  49%  50%  57°F  51°F  28.07"
Sun 06:00 PM  83.2°F  76°F  6 mph NW  6 mph  14 mph  0.00"  44%  42%  58°F  51°F  28.07"
Sun 05:00 PM  87.4°F  79°F  6 mph NW  7 mph  14 mph  0.00"  38%  38%  58°F  50°F  28.06"
Sun 04:00 PM  88.0°F  80°F  7 mph NW  7 mph  14 mph  0.00"  34%  36%  55°F  50°F  28.07"
Sun 03:00 PM  88.5°F  80°F  5 mph SW  6 mph  12 mph  0.00"  30%  36%  52°F  50°F  28.07"
Sun 02:00 PM  88.2°F  79°F  5 mph W  6 mph  9 mph  0.00"  30%  37%  52°F  49°F  28.09"
Sun 01:00 PM  84.2°F  77°F  7 mph W  6 mph  10 mph  0.00"  39%  40%  56°F  50°F  28.11"
Sun 12:00 PM  80.4°F  74°F  5 mph NW  5 mph  9 mph  0.00"  46%  46%  57°F  51°F  28.13"
Sun 11:00 AM  76.9°F  71°F  calm  4 mph  10 mph  0.00"  53%  53%  58°F  52°F  28.14"
Sun 10:00 AM  72.0°F  67°F  2 mph W  3 mph  7 mph  0.00"  63%  62%  58°F  54°F  28.15"
Sun 09:00 AM  67.2°F  64°F  2 mph SW  2 mph  6 mph  0.00"  72%  72%  58°F  54°F  28.15"
Sun 08:00 AM  63.2°F  60°F  2 mph SW  2 mph  4 mph  0.00"  81%  82%  57°F  54°F  28.15"
Sun 07:00 AM  56.8°F  56°F  calm  1 mph  none  0.00"  95%  90%  55°F  53°F  28.15"
Sun 06:00 AM  52.2°F  54°F  calm  1 mph  none  0.00"  97%  92%  51°F  52°F  28.13"
Sun 05:00 AM  52.0°F  54°F  calm  1 mph  none  0.00"  96%  92%  51°F  52°F  28.12"
Sun 04:00 AM  52.9°F  54°F  calm  1 mph  none  0.00"  95%  91%  52°F  52°F  28.12"
Sun 03:00 AM  53.2°F  55°F  calm  1 mph  none  0.00"  94%  90%  52°F  52°F  28.13"
Sun 02:00 AM  54.0°F  56°F  calm  1 mph  none  0.00"  92%  88%  52°F  52°F  28.13"
Sun 01:00 AM  55.7°F  57°F  calm  1 mph  none  0.00"  89%  86%  52°F  52°F  28.14"
Sun 12:00 AM  57.0°F  58°F  calm  1 mph  none  0.00"  87%  83%  53°F  53°F  28.15"
Sat 11:00 PM  58.8°F  59°F  calm  2 mph  none  0.00"  83%  79%  54°F  53°F  28.15"
Sat 10:00 PM  61.6°F  61°F  calm  2 mph  5 mph  0.00"  79%  74%  55°F  53°F  28.15"
Sat 09:00 PM  63.8°F  64°F  2 mph NW  3 mph  12 mph  0.00"  75%  68%  56°F  52°F  28.13"
Sat 08:00 PM  66.6°F  66°F  7 mph NW  4 mph  11 mph  0.00"  69%  61%  56°F  52°F  28.12"
Sat 07:00 PM  71.4°F  70°F  6 mph SW  6 mph  13 mph  0.00"  59%  52%  56°F  51°F  28.12"
Sat 06:00 PM  76.9°F  75°F  6 mph W  6 mph  16 mph  0.00"  49%  44%  56°F  51°F  28.12"
Sat 05:00 PM  80.4°F  78°F  5 mph SW  7 mph  13 mph  0.00"  40%  40%  53°F  51°F  28.12"
Sat 04:00 PM  80.9°F  79°F  8 mph W  7 mph  12 mph  0.00"  38%  38%  52°F  50°F  28.12"
Sat 03:00 PM  79.8°F  79°F  4 mph SW  6 mph  12 mph  0.00"  40%  37%  52°F  50°F  28.12"

  1. Current weather data. No green row appears if the current weather data is also the high or low for the current day.
  2. High temperature for the current day.
  3. Low temperature for the current day.

The Moreno Valley, California weather pages are a service of WeatherCurrents. Moreno Valley is located in Southern California's Inland Empire, east of Riverside and north of Perris, along the State Route 60 freeway.
Copyright ©Mon May 29 02:46:20 PDT 2017  WeatherCurrents. All rights reserved. - Submit questions and comments - Privacy Policy

This page automatically refreshes every 10 minutes.